Map

Track Data

SID SEASON NUMBER BASIN SUBBASIN NAME ISO_TIME NATURE LAT LON WMO_WIND WMO_PRES WMO_AGENCY TRACK_TYPE DIST2LAND LANDFALL IFLAG USA_AGENCY USA_ATCF_ID USA_LAT USA_LON USA_RECORD USA_STATUS USA_WIND USA_PRES USA_SSHS USA_R34_NE USA_R34_SE USA_R34_SW USA_R34_NW USA_R50_NE USA_R50_SE USA_R50_SW USA_R50_NW USA_R64_NE USA_R64_SE USA_R64_SW USA_R64_NW USA_POCI USA_ROCI USA_RMW USA_EYE TOKYO_LAT TOKYO_LON TOKYO_GRADE TOKYO_WIND TOKYO_PRES TOKYO_R50_DIR TOKYO_R50_LONG TOKYO_R50_SHORT TOKYO_R30_DIR TOKYO_R30_LONG TOKYO_R30_SHORT TOKYO_LAND CMA_LAT CMA_LON CMA_CAT CMA_WIND CMA_PRES HKO_LAT HKO_LON HKO_CAT HKO_WIND HKO_PRES NEWDELHI_LAT NEWDELHI_LON NEWDELHI_GRADE NEWDELHI_WIND NEWDELHI_PRES NEWDELHI_CI NEWDELHI_DP NEWDELHI_POCI REUNION_LAT REUNION_LON REUNION_TYPE REUNION_WIND REUNION_PRES REUNION_TNUM REUNION_CI REUNION_RMW REUNION_R34_NE REUNION_R34_SE REUNION_R34_SW REUNION_R34_NW REUNION_R50_NE REUNION_R50_SE REUNION_R50_SW REUNION_R50_NW REUNION_R64_NE REUNION_R64_SE REUNION_R64_SW REUNION_R64_NW BOM_LAT BOM_LON BOM_TYPE BOM_WIND BOM_PRES BOM_TNUM BOM_CI BOM_RMW BOM_R34_NE BOM_R34_SE BOM_R34_SW BOM_R34_NW BOM_R50_NE BOM_R50_SE BOM_R50_SW BOM_R50_NW BOM_R64_NE BOM_R64_SE BOM_R64_SW BOM_R64_NW BOM_ROCI BOM_POCI BOM_EYE BOM_POS_METHOD BOM_PRES_METHOD NADI_LAT NADI_LON NADI_CAT NADI_WIND NADI_PRES WELLINGTON_LAT WELLINGTON_LON WELLINGTON_WIND WELLINGTON_PRES DS824_LAT DS824_LON DS824_STAGE DS824_WIND DS824_PRES TD9636_LAT TD9636_LON TD9636_STAGE TD9636_WIND TD9636_PRES TD9635_LAT TD9635_LON TD9635_WIND TD9635_PRES TD9635_ROCI NEUMANN_LAT NEUMANN_LON NEUMANN_CLASS NEUMANN_WIND NEUMANN_PRES MLC_LAT MLC_LON MLC_CLASS MLC_WIND MLC_PRES USA_GUST BOM_GUST BOM_GUST_PER REUNION_GUST REUNION_GUST_PER USA_SEAHGT USA_SEARAD_NE USA_SEARAD_SE USA_SEARAD_SW USA_SEARAD_NW STORM_SPEED STORM_DIR
1896132N11121 1896 10 WP MM NOT_NAMED 1896-05-11 04:00:00 NR 11.0000 120.800 main 122 109 __________O___ -1 11.0000 120.800 3 6 285
1896132N11121 1896 10 WP MM NOT_NAMED 1896-05-11 06:00:00 NR 11.0502 120.611 main 109 77 __________P___ -1 11.0502 120.611 3 6 285
1896132N11121 1896 10 WP MM NOT_NAMED 1896-05-11 09:00:00 NR 11.1252 120.330 main 77 55 __________P___ -1 11.1252 120.330 3 6 285
1896132N11121 1896 10 WP MM NOT_NAMED 1896-05-11 12:00:00 NR 11.2002 120.054 main 55 21 __________P___ -1 11.2002 120.054 3 6 286
1896132N11121 1896 10 WP MM NOT_NAMED 1896-05-11 15:00:00 NR 11.2750 119.787 main 21 10 __________P___ -1 11.2750 119.787 3 5 286
1896132N11121 1896 10 WP MM NOT_NAMED 1896-05-11 16:00:00 NR 11.3000 119.700 main 10 0 __________O___ -1 11.3000 119.700 4 5 287
1896132N11121 1896 10 WP MM NOT_NAMED 1896-05-11 18:00:00 NR 11.3500 119.531 main 0 11 __________P___ -1 11.3500 119.531 4 5 287
1896132N11121 1896 10 WP MM NOT_NAMED 1896-05-11 21:00:00 NR 11.4249 119.289 main 24 24 __________P___ -1 11.4249 119.289 4 5 288
1896132N11121 1896 10 WP MM NOT_NAMED 1896-05-12 00:00:00 NR 11.5000 119.065 main 46 46 __________P___ -1 11.5000 119.065 4 4 290
1896132N11121 1896 10 WP MM NOT_NAMED 1896-05-12 03:00:00 NR 11.5750 118.862 main 70 70 __________P___ -1 11.5750 118.862 4 4 291
1896132N11121 1896 10 WP MM NOT_NAMED 1896-05-12 04:00:00 NR 11.6000 118.800 main 79 79 __________O___ -1 11.6000 118.800 4 4 293
1896132N11121 1896 10 WP MM NOT_NAMED 1896-05-12 06:00:00 NR 11.6473 118.688 main 88 94 __________P___ -1 11.6473 118.688 4 3 295
1896132N11121 1896 10 WP MM NOT_NAMED 1896-05-12 09:00:00 NR 11.7182 118.539 main 113 113 __________P___ -1 11.7182 118.539 4 3 297
1896132N11121 1896 10 WP MM NOT_NAMED 1896-05-12 12:00:00 NR 11.7920 118.399 main 128 128 __________P___ -1 11.7920 118.399 4 3 299
1896132N11121 1896 10 WP MM NOT_NAMED 1896-05-12 15:00:00 NR 11.8716 118.253 main 143 152 __________P___ -1 11.8716 118.253 4 3 299
1896132N11121 1896 10 WP MM NOT_NAMED 1896-05-12 16:00:00 NR 11.9000 118.200 main 152 152 __________O___ -1 11.9000 118.200 4 4 298
1896132N11121 1896 10 WP MM NOT_NAMED 1896-05-12 18:00:00 NR 11.9636 118.070 main 167 167 __________P___ -1 11.9636 118.070 4 4 297
1896132N11121 1896 10 WP MM NOT_NAMED 1896-05-12 21:00:00 NR 12.0654 117.863 main 192 192 __________P___ -1 12.0654 117.863 4 5 297
1896132N11121 1896 10 WP MM NOT_NAMED 1896-05-13 00:00:00 NR 12.1692 117.654 main 216 225 __________P___ -1 12.1692 117.654 4 4 297
1896132N11121 1896 10 WP MM NOT_NAMED 1896-05-13 03:00:00 NR 12.2688 117.459 main 240 250 __________P___ -1 12.2688 117.459 4 4 298
1896132N11121 1896 10 WP MM NOT_NAMED 1896-05-13 04:00:00 NR 12.3000 117.400 main 250 250 __________O___ -1 12.3000 117.400 4 4 299
1896132N11121 1896 10 WP MM NOT_NAMED 1896-05-13 06:00:00 NR 12.3557 117.299 main 265 265 __________P___ -1 12.3557 117.299 4 3 300
1896132N11121 1896 10 WP MM NOT_NAMED 1896-05-13 09:00:00 NR 12.4329 117.168 main 274 274 __________P___ -1 12.4329 117.168 4 3 302
1896132N11121 1896 10 WP MM NOT_NAMED 1896-05-13 12:00:00 NR 12.5054 117.050 main 289 299 __________P___ -1 12.5054 117.050 4 3 303
1896132N11121 1896 10 WP MM NOT_NAMED 1896-05-13 15:00:00 NR 12.5762 116.938 main 314 314 __________P___ -1 12.5762 116.938 4 3 302
1896132N11121 1896 10 WP MM NOT_NAMED 1896-05-13 16:00:00 NR 12.6000 116.900 main 314 314 __________O___ -1 12.6000 116.900 4 3 298
1896132N11121 1896 10 WP MM NOT_NAMED 1896-05-13 18:00:00 NR 12.6421 116.811 main 323 323 __________P___ -1 12.6421 116.811 4 3 296
1896132N11121 1896 10 WP MM NOT_NAMED 1896-05-13 21:00:00 NR 12.7052 116.678 main 338 338 __________P___ -1 12.7052 116.678 4 3 298
1896132N11121 1896 10 WP MM NOT_NAMED 1896-05-14 00:00:00 NR 12.7763 116.551 main 353 362 __________P___ -1 12.7763 116.551 4 3 304
1896132N11121 1896 10 WP MM NOT_NAMED 1896-05-14 03:00:00 NR 12.8649 116.435 main 377 377 __________P___ -1 12.8649 116.435 4 3 310
1896132N11121 1896 10 WP MM NOT_NAMED 1896-05-14 04:00:00 NR 12.9000 116.400 main 377 377 __________O___ -1 12.9000 116.400 4 3 321
1896132N11121 1896 10 WP MM NOT_NAMED 1896-05-14 06:00:00 NR 12.9802 116.336 main 392 392 __________P___ -1 12.9802 116.336 4 3 327
1896132N11121 1896 10 WP MM NOT_NAMED 1896-05-14 09:00:00 NR 13.1195 116.252 main 398 407 __________P___ -1 13.1195 116.252 4 3 332
1896132N11121 1896 10 WP MM NOT_NAMED 1896-05-14 12:00:00 NR 13.2758 116.181 main 419 419 __________P___ -1 13.2758 116.181 4 4 338
1896132N11121 1896 10 WP MM NOT_NAMED 1896-05-14 15:00:00 NR 13.4430 116.119 main 435 441 __________P___ -1 13.4430 116.119 4 4 341
1896132N11121 1896 10 WP MM NOT_NAMED 1896-05-14 16:00:00 NR 13.5000 116.100 main 441 441 __________O___ -1 13.5000 116.100 4 4 337
1896132N11121 1896 10 WP MM NOT_NAMED 1896-05-14 18:00:00 NR 13.6057 116.048 main 456 455 __________P___ -1 13.6057 116.048 4 4 336
1896132N11121 1896 10 WP MM NOT_NAMED 1896-05-14 21:00:00 NR 13.7705 115.976 main 455 455 __________P___ -1 13.7705 115.976 4 4 340
1896132N11121 1896 10 WP MM NOT_NAMED 1896-05-15 00:00:00 NR 13.9454 115.922 main 462 454 __________P___ -1 13.9454 115.922 4 4 348
1896132N11121 1896 10 WP MM NOT_NAMED 1896-05-15 03:00:00 NR 14.1337 115.899 main 454 450 __________P___ -1 14.1337 115.899 4 4 0
1896132N11121 1896 10 WP MM NOT_NAMED 1896-05-15 04:00:00 NR 14.2000 115.900 main 450 447 __________O___ -1 14.2000 115.900 4 4 3
1896132N11121 1896 10 WP MM NOT_NAMED 1896-05-15 06:00:00 NR 14.3464 115.911 main 447 426 __________P___ -1 14.3464 115.911 4 5 9
1896132N11121 1896 10 WP MM NOT_NAMED 1896-05-15 09:00:00 NR 14.5789 115.959 main 426 418 __________P___ -1 14.5789 115.959 4 5 15
1896132N11121 1896 10 WP MM NOT_NAMED 1896-05-15 12:00:00 NR 14.8128 116.041 main 418 391 __________P___ -1 14.8128 116.041 4 5 23
1896132N11121 1896 10 WP MM NOT_NAMED 1896-05-15 15:00:00 NR 15.0326 116.155 main 391 388 __________P___ -1 15.0326 116.155 4 5 28
1896132N11121 1896 10 WP MM NOT_NAMED 1896-05-15 16:00:00 NR 15.1000 116.200 main 388 375 __________O___ -1 15.1000 116.200 4 4 34
1896132N11121 1896 10 WP MM NOT_NAMED 1896-05-15 18:00:00 NR 15.2145 116.283 main 375 359 __________P___ -1 15.2145 116.283 4 4 40
1896132N11121 1896 10 WP MM NOT_NAMED 1896-05-15 21:00:00 NR 15.3672 116.434 main 359 336 __________P___ -1 15.3672 116.434 4 4 47
1896132N11121 1896 10 WP MM NOT_NAMED 1896-05-16 00:00:00 NR 15.5083 116.614 main 336 312 __________P___ -1 15.5083 116.614 4 5 53
1896132N11121 1896 10 WP MM NOT_NAMED 1896-05-16 03:00:00 NR 15.6503 116.823 main 312 301 __________P___ -1 15.6503 116.823 4 5 55
1896132N11121 1896 10 WP MM NOT_NAMED 1896-05-16 04:00:00 NR 15.7000 116.900 main 301 279 __________O___ -1 15.7000 116.900 4 6 53
1896132N11121 1896 10 WP MM NOT_NAMED 1896-05-16 06:00:00 NR 15.8189 117.060 main 279 256 __________P___ -1 15.8189 117.060 4 6 53
1896132N11121 1896 10 WP MM NOT_NAMED 1896-05-16 09:00:00 NR 16.0036 117.326 main 256 225 __________P___ -1 16.0036 117.326 4 6 55
1896132N11121 1896 10 WP MM NOT_NAMED 1896-05-16 12:00:00 NR 16.1850 117.611 main 225 195 __________P___ -1 16.1850 117.611 4 7 58
1896132N11121 1896 10 WP MM NOT_NAMED 1896-05-16 15:00:00 NR 16.3505 117.903 main 197 187 __________P___ -1 16.3505 117.903 4 6 60
1896132N11121 1896 10 WP MM NOT_NAMED 1896-05-16 16:00:00 NR 16.4000 118.000 main 187 176 __________O___ -1 16.4000 118.000 4 5 69
1896132N11121 1896 10 WP MM NOT_NAMED 1896-05-16 18:00:00 NR 16.4386 118.145 main 176 149 __________P___ -1 16.4386 118.145 4 4 78
1896132N11121 1896 10 WP MM NOT_NAMED 1896-05-16 21:00:00 NR 16.4768 118.362 main 149 129 __________P___ -1 16.4768 118.362 4 5 77
1896132N11121 1896 10 WP MM NOT_NAMED 1896-05-17 00:00:00 NR 16.5473 118.618 main 129 96 __________P___ -1 16.5473 118.618 4 6 68
1896132N11121 1896 10 WP MM NOT_NAMED 1896-05-17 03:00:00 NR 16.7129 118.959 main 96 93 __________P___ -1 16.7129 118.959 4 8 61
1896132N11121 1896 10 WP MM NOT_NAMED 1896-05-17 04:00:00 NR 16.8000 119.100 main 93 84 __________O___ -1 16.8000 119.100 4 12 54
1896132N11121 1896 10 WP MM NOT_NAMED 1896-05-17 06:00:00 NR 17.0535 119.447 main 99 23 __________P___ -1 17.0535 119.447 4 14 51
1896132N11121 1896 10 WP MM NOT_NAMED 1896-05-17 09:00:00 NR 17.5406 120.062 main 23 0 __________P___ -1 17.5406 120.062 4 16 50
1896132N11121 1896 10 WP MM NOT_NAMED 1896-05-17 12:00:00 NR 18.1085 120.751 main 0 0 __________P___ -1 18.1085 120.751 4 18 49
1896132N11121 1896 10 WP MM NOT_NAMED 1896-05-17 15:00:00 NR 18.7043 121.465 main 24 24 __________P___ -1 18.7043 121.465 4 18 49
1896132N11121 1896 10 WP MM NOT_NAMED 1896-05-17 16:00:00 NR 18.9000 121.700 main 54 54 __________O___ -1 18.9000 121.700 4 17 50
1896132N11121 1896 10 WP MM NOT_NAMED 1896-05-17 18:00:00 NR 19.2523 122.144 main 100 100 __________P___ -1 19.2523 122.144 4 16 50
1896132N11121 1896 10 WP MM NOT_NAMED 1896-05-17 21:00:00 NR 19.7812 122.811 main 165 165 __________P___ -1 19.7812 122.811 4 16 50
1896132N11121 1896 10 WP MM NOT_NAMED 1896-05-18 00:00:00 NR 20.3076 123.466 main 247 247 __________P___ -1 20.3076 123.466 4 16 49
1896132N11121 1896 10 WP MM NOT_NAMED 1896-05-18 03:00:00 NR 20.8283 124.097 main 328 337 __________P___ -1 20.8283 124.097 4 16 48
1896132N11121 1896 10 WP MM NOT_NAMED 1896-05-18 04:00:00 NR 21.0000 124.300 main 358 358 __________O___ -1 21.0000 124.300 4 15 48
1896132N11121 1896 10 WP MM NOT_NAMED 1896-05-18 06:00:00 NR 21.3224 124.686 main 394 389 __________P___ -1 21.3224 124.686 4 14 48
1896132N11121 1896 10 WP MM NOT_NAMED 1896-05-18 09:00:00 NR 21.8000 125.239 main 416 422 __________P___ -1 21.8000 125.239 4 14 46
1896132N11121 1896 10 WP MM NOT_NAMED 1896-05-18 12:00:00 NR 22.2899 125.776 main 459 459 __________P___ -1 22.2899 125.776 4 14 45
1896132N11121 1896 10 WP MM NOT_NAMED 1896-05-18 15:00:00 NR 22.8140 126.316 main 486 486 __________P___ -1 22.8140 126.316 4 15 43
1896132N11121 1896 10 WP MM NOT_NAMED 1896-05-18 16:00:00 NR 23.0000 126.500 main 497 497 __________O___ -1 23.0000 126.500 4 16 42
1896132N11121 1896 10 WP MM NOT_NAMED 1896-05-18 18:00:00 NR 23.3919 126.877 main 522 519 __________P___ -1 23.3919 126.877 4 16 41
1896132N11121 1896 10 WP MM NOT_NAMED 1896-05-18 21:00:00 NR 24.0215 127.463 main 567 564 __________P___ -1 24.0215 127.463 4 17 40
1896132N11121 1896 10 WP MM NOT_NAMED 1896-05-19 00:00:00 NR 24.6866 128.069 main 615 615 __________P___ -1 24.6866 128.069 4 18 40
1896132N11121 1896 10 WP MM NOT_NAMED 1896-05-19 03:00:00 NR 25.3706 128.691 main 655 628 __________P___ -1 25.3706 128.691 4 18 39
1896132N11121 1896 10 WP MM NOT_NAMED 1896-05-19 04:00:00 NR 25.6000 128.900 main 628 __________O___ -1 25.6000 128.900 4 18 40

Digital Typhoon Data and Search

About IBTrACS Database

This database is a web-friendly format of International Best Track Archive for Climate Stewardship (IBTrACS), a global best track data archive curated by NOAA dating back to 1842.

Updated: 2021-12-06